sensor_id;sensor_type;location;lat;lon;timestamp;pressure;altitude;pressure_sealevel;temperature;humidity
54556;BME280;57291;37.520;15.106;2022-08-24T00:00:36;100849.63;;;23.78;68.70
54556;BME280;57291;37.520;15.106;2022-08-24T00:03:03;100857.47;;;23.72;69.50
54556;BME280;57291;37.520;15.106;2022-08-24T00:05:31;100840.81;;;23.69;69.39
54556;BME280;57291;37.520;15.106;2022-08-24T00:07:58;100827.25;;;23.63;69.69
54556;BME280;57291;37.520;15.106;2022-08-24T00:10:25;100814.13;;;23.57;70.30
54556;BME280;57291;37.520;15.106;2022-08-24T00:12:52;100807.75;;;23.53;70.41
54556;BME280;57291;37.520;15.106;2022-08-24T00:15:20;100810.47;;;23.49;70.55
54556;BME280;57291;37.520;15.106;2022-08-24T00:17:47;100813.63;;;23.48;70.35
54556;BME280;57291;37.520;15.106;2022-08-24T00:20:15;100808.84;;;23.45;70.54
54556;BME280;57291;37.520;15.106;2022-08-24T00:22:42;100805.22;;;23.37;70.63
54556;BME280;57291;37.520;15.106;2022-08-24T00:25:11;100804.03;;;23.38;70.70
54556;BME280;57291;37.520;15.106;2022-08-24T00:27:40;100801.22;;;23.34;70.51
54556;BME280;57291;37.520;15.106;2022-08-24T00:30:10;100791.28;;;23.30;70.89
54556;BME280;57291;37.520;15.106;2022-08-24T00:32:40;100786.53;;;23.30;70.69
54556;BME280;57291;37.520;15.106;2022-08-24T00:35:08;100784.16;;;23.32;70.56
54556;BME280;57291;37.520;15.106;2022-08-24T00:37:36;100783.38;;;23.35;70.14
54556;BME280;57291;37.520;15.106;2022-08-24T00:40:07;100787.38;;;23.38;70.20
54556;BME280;57291;37.520;15.106;2022-08-24T00:42:38;100798.88;;;23.36;70.11
54556;BME280;57291;37.520;15.106;2022-08-24T00:45:08;100787.00;;;23.39;69.25
54556;BME280;57291;37.520;15.106;2022-08-24T00:47:47;100781.94;;;23.49;68.87
54556;BME280;57291;37.520;15.106;2022-08-24T00:52:59;100785.63;;;23.60;67.44
54556;BME280;57291;37.520;15.106;2022-08-24T00:55:32;100788.41;;;23.63;67.52
54556;BME280;57291;37.520;15.106;2022-08-24T00:58:08;100793.22;;;23.67;67.19
54556;BME280;57291;37.520;15.106;2022-08-24T01:00:46;100799.19;;;23.69;66.36
54556;BME280;57291;37.520;15.106;2022-08-24T01:03:16;100813.06;;;23.69;65.59
54556;BME280;57291;37.520;15.106;2022-08-24T01:05:43;100809.13;;;23.70;65.19
54556;BME280;57291;37.520;15.106;2022-08-24T01:08:13;100803.94;;;23.68;64.97
54556;BME280;57291;37.520;15.106;2022-08-24T01:10:45;100791.59;;;23.65;63.91
54556;BME280;57291;37.520;15.106;2022-08-24T01:13:14;100795.19;;;23.66;63.41
54556;BME280;57291;37.520;15.106;2022-08-24T01:15:45;100786.03;;;23.65;63.00
54556;BME280;57291;37.520;15.106;2022-08-24T01:18:19;100782.88;;;23.63;63.24
54556;BME280;57291;37.520;15.106;2022-08-24T01:23:41;100782.41;;;23.58;64.21
54556;BME280;57291;37.520;15.106;2022-08-24T01:26:14;100789.13;;;23.53;64.92
54556;BME280;57291;37.520;15.106;2022-08-24T01:28:46;100790.69;;;23.51;64.69
54556;BME280;57291;37.520;15.106;2022-08-24T01:31:19;100796.19;;;23.47;65.32
54556;BME280;57291;37.520;15.106;2022-08-24T01:33:50;100793.00;;;23.45;65.18
54556;BME280;57291;37.520;15.106;2022-08-24T01:37:11;100787.47;;;23.49;64.92
54556;BME280;57291;37.520;15.106;2022-08-24T01:39:27;100781.91;;;23.45;64.85
54556;BME280;57291;37.520;15.106;2022-08-24T01:41:56;100782.69;;;23.46;63.79
54556;BME280;57291;37.520;15.106;2022-08-24T01:44:25;100792.22;;;23.48;62.72
54556;BME280;57291;37.520;15.106;2022-08-24T01:46:54;100786.31;;;23.50;62.43
54556;BME280;57291;37.520;15.106;2022-08-24T01:49:26;100789.88;;;23.50;61.75
54556;BME280;57291;37.520;15.106;2022-08-24T01:51:54;100787.50;;;23.52;61.86
54556;BME280;57291;37.520;15.106;2022-08-24T01:54:23;100787.19;;;23.57;61.67
54556;BME280;57291;37.520;15.106;2022-08-24T01:56:51;100796.31;;;23.61;61.99
54556;BME280;57291;37.520;15.106;2022-08-24T01:59:20;100791.56;;;23.62;61.66
54556;BME280;57291;37.520;15.106;2022-08-24T02:01:51;100780.50;;;23.65;61.21
54556;BME280;57291;37.520;15.106;2022-08-24T02:04:19;100781.75;;;23.68;61.53
54556;BME280;57291;37.520;15.106;2022-08-24T02:06:47;100775.03;;;23.69;61.00
54556;BME280;57291;37.520;15.106;2022-08-24T02:09:15;100765.13;;;23.72;60.88
54556;BME280;57291;37.520;15.106;2022-08-24T02:11:42;100776.28;;;23.79;60.81
54556;BME280;57291;37.520;15.106;2022-08-24T02:14:12;100764.00;;;23.76;60.61
54556;BME280;57291;37.520;15.106;2022-08-24T02:16:40;100778.22;;;23.75;60.78
54556;BME280;57291;37.520;15.106;2022-08-24T02:19:08;100788.53;;;23.74;60.76
54556;BME280;57291;37.520;15.106;2022-08-24T02:21:36;100786.97;;;23.73;60.97
54556;BME280;57291;37.520;15.106;2022-08-24T02:24:05;100784.53;;;23.72;60.88
54556;BME280;57291;37.520;15.106;2022-08-24T02:26:33;100780.97;;;23.71;60.88
54556;BME280;57291;37.520;15.106;2022-08-24T02:29:00;100788.13;;;23.72;61.18
54556;BME280;57291;37.520;15.106;2022-08-24T02:31:31;100780.63;;;23.73;60.95
54556;BME280;57291;37.520;15.106;2022-08-24T02:33:59;100777.84;;;23.73;60.85
54556;BME280;57291;37.520;15.106;2022-08-24T02:36:26;100767.13;;;23.75;60.49
54556;BME280;57291;37.520;15.106;2022-08-24T02:38:56;100758.41;;;23.73;60.11
54556;BME280;57291;37.520;15.106;2022-08-24T02:41:24;100760.00;;;23.74;60.45
54556;BME280;57291;37.520;15.106;2022-08-24T02:43:54;100770.69;;;23.75;60.19
54556;BME280;57291;37.520;15.106;2022-08-24T02:46:25;100766.38;;;23.78;60.14
54556;BME280;57291;37.520;15.106;2022-08-24T02:48:54;100789.34;;;23.78;60.07
54556;BME280;57291;37.520;15.106;2022-08-24T02:51:42;100780.25;;;23.78;59.69
54556;BME280;57291;37.520;15.106;2022-08-24T02:54:20;100777.47;;;23.78;59.40
54556;BME280;57291;37.520;15.106;2022-08-24T02:56:50;100787.78;;;23.77;59.50
54556;BME280;57291;37.520;15.106;2022-08-24T02:59:18;100774.28;;;23.76;59.11
54556;BME280;57291;37.520;15.106;2022-08-24T03:01:47;100762.78;;;23.74;61.31
54556;BME280;57291;37.520;15.106;2022-08-24T03:04:17;100770.16;;;23.62;64.73
54556;BME280;57291;37.520;15.106;2022-08-24T03:06:45;100769.25;;;23.48;62.72
54556;BME280;57291;37.520;15.106;2022-08-24T03:09:12;100767.69;;;23.50;60.87
54556;BME280;57291;37.520;15.106;2022-08-24T03:11:40;100756.66;;;23.57;60.47
54556;BME280;57291;37.520;15.106;2022-08-24T03:14:11;100765.81;;;23.61;60.48
54556;BME280;57291;37.520;15.106;2022-08-24T03:16:39;100767.81;;;23.64;59.94
54556;BME280;57291;37.520;15.106;2022-08-24T03:19:06;100761.06;;;23.65;60.41
54556;BME280;57291;37.520;15.106;2022-08-24T03:21:35;100769.78;;;23.64;60.66
54556;BME280;57291;37.520;15.106;2022-08-24T03:24:03;100770.56;;;23.61;60.83
54556;BME280;57291;37.520;15.106;2022-08-24T03:26:30;100768.13;;;23.56;61.12
54556;BME280;57291;37.520;15.106;2022-08-24T03:28:58;100760.19;;;23.54;61.66
54556;BME280;57291;37.520;15.106;2022-08-24T03:31:29;100759.38;;;23.50;62.13
54556;BME280;57291;37.520;15.106;2022-08-24T03:33:57;100758.16;;;23.48;62.29
54556;BME280;57291;37.520;15.106;2022-08-24T03:36:25;100749.38;;;23.42;62.99
54556;BME280;57291;37.520;15.106;2022-08-24T03:38:53;100758.84;;;23.37;63.04
54556;BME280;57291;37.520;15.106;2022-08-24T03:41:21;100768.72;;;23.35;63.68
54556;BME280;57291;37.520;15.106;2022-08-24T03:43:48;100769.50;;;23.32;63.66
54556;BME280;57291;37.520;15.106;2022-08-24T03:46:21;100760.34;;;23.28;64.48
54556;BME280;57291;37.520;15.106;2022-08-24T03:48:53;100772.19;;;23.25;64.42
54556;BME280;57291;37.520;15.106;2022-08-24T03:51:24;100774.50;;;23.19;64.96
54556;BME280;57291;37.520;15.106;2022-08-24T03:53:53;100771.34;;;23.17;65.01
54556;BME280;57291;37.520;15.106;2022-08-24T03:56:24;100765.38;;;23.15;65.14
54556;BME280;57291;37.520;15.106;2022-08-24T03:58:51;100774.47;;;23.15;65.71
54556;BME280;57291;37.520;15.106;2022-08-24T04:01:18;100775.63;;;23.11;65.95
54556;BME280;57291;37.520;15.106;2022-08-24T04:03:48;100777.16;;;23.08;66.01
54556;BME280;57291;37.520;15.106;2022-08-24T04:06:17;100770.44;;;23.09;65.03
54556;BME280;57291;37.520;15.106;2022-08-24T04:08:45;100778.34;;;23.07;64.97
54556;BME280;57291;37.520;15.106;2022-08-24T04:11:15;100783.91;;;23.07;64.80
54556;BME280;57291;37.520;15.106;2022-08-24T04:13:44;100776.69;;;23.03;65.09
54556;BME280;57291;37.520;15.106;2022-08-24T04:16:14;100782.97;;;22.96;65.54
54556;BME280;57291;37.520;15.106;2022-08-24T04:18:42;100765.94;;;22.94;65.77
54556;BME280;57291;37.520;15.106;2022-08-24T04:21:23;100769.75;;;22.86;65.96
54556;BME280;57291;37.520;15.106;2022-08-24T04:23:51;100772.44;;;22.79;66.45
54556;BME280;57291;37.520;15.106;2022-08-24T04:26:22;100772.75;;;22.74;66.46
54556;BME280;57291;37.520;15.106;2022-08-24T04:29:11;100781.16;;;22.77;66.20
54556;BME280;57291;37.520;15.106;2022-08-24T04:31:45;100784.34;;;22.83;66.23
54556;BME280;57291;37.520;15.106;2022-08-24T04:34:14;100790.38;;;22.88;65.76
54556;BME280;57291;37.520;15.106;2022-08-24T04:36:43;100798.41;;;22.93;65.62
54556;BME280;57291;37.520;15.106;2022-08-24T04:39:12;100802.84;;;23.02;65.04
54556;BME280;57291;37.520;15.106;2022-08-24T04:41:40;100806.91;;;23.11;64.59
54556;BME280;57291;37.520;15.106;2022-08-24T04:44:10;100802.22;;;23.19;63.97
54556;BME280;57291;37.520;15.106;2022-08-24T04:46:37;100803.19;;;23.34;63.27
54556;BME280;57291;37.520;15.106;2022-08-24T04:49:07;100798.97;;;23.47;62.18
54556;BME280;57291;37.520;15.106;2022-08-24T04:51:34;100803.03;;;23.57;62.27
54556;BME280;57291;37.520;15.106;2022-08-24T04:54:04;100806.03;;;23.82;62.34
54556;BME280;57291;37.520;15.106;2022-08-24T04:56:33;100806.56;;;24.50;63.40
54556;BME280;57291;37.520;15.106;2022-08-24T04:59:02;100809.38;;;25.94;60.65
54556;BME280;57291;37.520;15.106;2022-08-24T05:01:31;100805.34;;;27.41;54.89
54556;BME280;57291;37.520;15.106;2022-08-24T05:04:00;100807.94;;;28.59;51.32
54556;BME280;57291;37.520;15.106;2022-08-24T05:06:30;100803.81;;;29.59;47.21
54556;BME280;57291;37.520;15.106;2022-08-24T05:09:00;100804.63;;;30.30;44.75
54556;BME280;57291;37.520;15.106;2022-08-24T05:11:28;100804.81;;;30.83;44.78
54556;BME280;57291;37.520;15.106;2022-08-24T05:13:56;100809.72;;;31.35;42.14
54556;BME280;57291;37.520;15.106;2022-08-24T05:16:25;100813.66;;;30.61;44.16
54556;BME280;57291;37.520;15.106;2022-08-24T05:18:54;100805.41;;;29.60;46.44
54556;BME280;57291;37.520;15.106;2022-08-24T05:21:23;100805.09;;;28.63;48.58
54556;BME280;57291;37.520;15.106;2022-08-24T05:23:53;100800.28;;;28.25;49.57
54556;BME280;57291;37.520;15.106;2022-08-24T05:26:24;100793.38;;;27.96;50.35
54556;BME280;57291;37.520;15.106;2022-08-24T05:28:54;100797.66;;;27.59;51.25
54556;BME280;57291;37.520;15.106;2022-08-24T05:31:26;100799.38;;;27.42;51.79
54556;BME280;57291;37.520;15.106;2022-08-24T05:33:57;100803.13;;;27.07;52.03
54556;BME280;57291;37.520;15.106;2022-08-24T05:36:31;100811.28;;;26.65;52.88
54556;BME280;57291;37.520;15.106;2022-08-24T05:39:00;100814.06;;;26.62;53.58
54556;BME280;57291;37.520;15.106;2022-08-24T05:41:30;100814.53;;;27.38;52.75
54556;BME280;57291;37.520;15.106;2022-08-24T05:44:06;100804.09;;;28.80;48.71
54556;BME280;57291;37.520;15.106;2022-08-24T05:46:34;100808.25;;;30.51;44.46
54556;BME280;57291;37.520;15.106;2022-08-24T05:49:03;100802.97;;;32.14;40.25
54556;BME280;57291;37.520;15.106;2022-08-24T05:51:32;100799.47;;;32.98;38.01
54556;BME280;57291;37.520;15.106;2022-08-24T05:54:04;100798.41;;;33.94;36.78
54556;BME280;57291;37.520;15.106;2022-08-24T05:56:46;100791.13;;;35.06;34.34
54556;BME280;57291;37.520;15.106;2022-08-24T05:59:14;100790.28;;;35.68;32.72
54556;BME280;57291;37.520;15.106;2022-08-24T06:01:44;100790.34;;;36.05;31.75
54556;BME280;57291;37.520;15.106;2022-08-24T06:04:12;100804.03;;;36.52;31.49
54556;BME280;57291;37.520;15.106;2022-08-24T06:06:40;100804.00;;;36.61;30.25
54556;BME280;57291;37.520;15.106;2022-08-24T06:09:10;100797.25;;;36.22;30.74
54556;BME280;57291;37.520;15.106;2022-08-24T06:11:39;100801.81;;;36.20;30.59
54556;BME280;57291;37.520;15.106;2022-08-24T06:14:13;100805.44;;;36.02;31.44
54556;BME280;57291;37.520;15.106;2022-08-24T06:17:07;100809.25;;;35.58;32.27
54556;BME280;57291;37.520;15.106;2022-08-24T06:19:36;100806.81;;;35.97;30.71
54556;BME280;57291;37.520;15.106;2022-08-24T06:22:03;100800.16;;;35.23;32.71
54556;BME280;57291;37.520;15.106;2022-08-24T06:24:35;100803.34;;;35.43;32.58
54556;BME280;57291;37.520;15.106;2022-08-24T06:27:21;100802.50;;;34.93;33.02
54556;BME280;57291;37.520;15.106;2022-08-24T06:30:03;100805.13;;;34.09;35.35
54556;BME280;57291;37.520;15.106;2022-08-24T06:32:58;100797.41;;;34.57;34.60
54556;BME280;57291;37.520;15.106;2022-08-24T06:35:33;100792.25;;;35.49;32.51
54556;BME280;57291;37.520;15.106;2022-08-24T06:38:00;100793.16;;;34.52;36.08
54556;BME280;57291;37.520;15.106;2022-08-24T06:40:28;100803.25;;;34.06;36.41
54556;BME280;57291;37.520;15.106;2022-08-24T06:43:00;100805.09;;;34.78;35.24
54556;BME280;57291;37.520;15.106;2022-08-24T06:45:47;100811.53;;;35.41;34.80
54556;BME280;57291;37.520;15.106;2022-08-24T06:48:17;100821.38;;;35.37;34.67
54556;BME280;57291;37.520;15.106;2022-08-24T06:50:46;100816.69;;;35.74;34.45
54556;BME280;57291;37.520;15.106;2022-08-24T06:53:14;100815.34;;;35.16;35.42
54556;BME280;57291;37.520;15.106;2022-08-24T06:55:53;100814.56;;;34.63;37.01
54556;BME280;57291;37.520;15.106;2022-08-24T06:58:21;100817.78;;;35.36;36.34
54556;BME280;57291;37.520;15.106;2022-08-24T07:00:49;100809.78;;;35.04;37.71
54556;BME280;57291;37.520;15.106;2022-08-24T07:03:19;100809.50;;;34.23;39.02
54556;BME280;57291;37.520;15.106;2022-08-24T07:05:58;100811.66;;;34.53;38.43
54556;BME280;57291;37.520;15.106;2022-08-24T07:08:34;100806.81;;;34.19;39.51
54556;BME280;57291;37.520;15.106;2022-08-24T07:11:02;100802.16;;;33.27;40.64
54556;BME280;57291;37.520;15.106;2022-08-24T07:13:31;100812.22;;;33.15;41.21
54556;BME280;57291;37.520;15.106;2022-08-24T07:15:59;100804.34;;;32.68;42.47
54556;BME280;57291;37.520;15.106;2022-08-24T07:18:27;100823.25;;;33.22;41.09
54556;BME280;57291;37.520;15.106;2022-08-24T07:20:55;100816.84;;;33.47;40.62
54556;BME280;57291;37.520;15.106;2022-08-24T07:23:41;100832.38;;;33.90;39.54
54556;BME280;57291;37.520;15.106;2022-08-24T07:26:14;100820.97;;;34.28;38.86
54556;BME280;57291;37.520;15.106;2022-08-24T07:28:51;100826.19;;;34.30;38.43
54556;BME280;57291;37.520;15.106;2022-08-24T07:31:21;100832.56;;;33.96;38.90
54556;BME280;57291;37.520;15.106;2022-08-24T07:33:56;100831.34;;;33.97;38.71
54556;BME280;57291;37.520;15.106;2022-08-24T07:36:24;100845.44;;;33.33;40.18
54556;BME280;57291;37.520;15.106;2022-08-24T07:38:55;100845.19;;;33.02;41.70
54556;BME280;57291;37.520;15.106;2022-08-24T07:41:25;100850.44;;;32.58;41.69
54556;BME280;57291;37.520;15.106;2022-08-24T07:44:15;100849.84;;;32.50;43.55
54556;BME280;57291;37.520;15.106;2022-08-24T07:46:44;100849.75;;;32.96;42.26
54556;BME280;57291;37.520;15.106;2022-08-24T07:49:14;100865.50;;;33.48;41.69
54556;BME280;57291;37.520;15.106;2022-08-24T07:52:02;100868.88;;;33.30;40.98
54556;BME280;57291;37.520;15.106;2022-08-24T07:54:30;100867.81;;;32.98;41.76
54556;BME280;57291;37.520;15.106;2022-08-24T07:56:58;100857.59;;;31.64;45.68
54556;BME280;57291;37.520;15.106;2022-08-24T07:59:28;100862.84;;;31.62;45.93
54556;BME280;57291;37.520;15.106;2022-08-24T08:01:57;100866.31;;;32.19;44.09
54556;BME280;57291;37.520;15.106;2022-08-24T08:04:25;100858.56;;;31.74;45.98
54556;BME280;57291;37.520;15.106;2022-08-24T08:06:54;100869.94;;;30.94;46.85
54556;BME280;57291;37.520;15.106;2022-08-24T08:09:28;100871.56;;;30.72;48.09
54556;BME280;57291;37.520;15.106;2022-08-24T08:11:56;100875.69;;;30.87;47.68
54556;BME280;57291;37.520;15.106;2022-08-24T08:14:23;100874.59;;;31.41;47.07
54556;BME280;57291;37.520;15.106;2022-08-24T08:16:52;100874.50;;;31.44;46.20
54556;BME280;57291;37.520;15.106;2022-08-24T08:19:19;100877.59;;;31.30;46.81
54556;BME280;57291;37.520;15.106;2022-08-24T08:21:48;100881.44;;;31.40;47.72
54556;BME280;57291;37.520;15.106;2022-08-24T08:24:49;100869.19;;;31.30;46.86
54556;BME280;57291;37.520;15.106;2022-08-24T08:27:16;100885.22;;;31.49;46.27
54556;BME280;57291;37.520;15.106;2022-08-24T08:29:44;100884.53;;;31.62;46.52
54556;BME280;57291;37.520;15.106;2022-08-24T08:32:13;100880.03;;;31.48;45.87
54556;BME280;57291;37.520;15.106;2022-08-24T08:34:46;100872.63;;;31.38;46.34
54556;BME280;57291;37.520;15.106;2022-08-24T08:37:14;100880.03;;;31.48;46.72
54556;BME280;57291;37.520;15.106;2022-08-24T08:39:41;100881.78;;;31.02;47.38
54556;BME280;57291;37.520;15.106;2022-08-24T08:50:59;100880.78;;;29.78;50.85
54556;BME280;57291;37.520;15.106;2022-08-24T08:56:37;100881.66;;;29.41;52.85
54556;BME280;57291;37.520;15.106;2022-08-24T09:11:07;100880.63;;;29.62;50.50
54556;BME280;57291;37.520;15.106;2022-08-24T09:17:08;100884.53;;;29.07;51.47
54556;BME280;57291;37.520;15.106;2022-08-24T09:20:13;100883.69;;;29.10;51.21
54556;BME280;57291;37.520;15.106;2022-08-24T09:22:46;100872.81;;;29.15;51.28
54556;BME280;57291;37.520;15.106;2022-08-24T09:25:31;100871.56;;;29.20;52.26
54556;BME280;57291;37.520;15.106;2022-08-24T09:34:08;100872.97;;;29.32;51.23
54556;BME280;57291;37.520;15.106;2022-08-24T09:51:22;100878.16;;;28.65;54.31
54556;BME280;57291;37.520;15.106;2022-08-24T10:20:04;100900.38;;;28.38;54.98
54556;BME280;57291;37.520;15.106;2022-08-24T10:40:33;100910.19;;;28.12;56.86
54556;BME280;57291;37.520;15.106;2022-08-24T10:46:31;100888.81;;;27.83;58.82
54556;BME280;57291;37.520;15.106;2022-08-24T10:54:35;100873.16;;;27.97;57.31
54556;BME280;57291;37.520;15.106;2022-08-24T10:57:26;100865.78;;;28.24;56.49
54556;BME280;57291;37.520;15.106;2022-08-24T11:00:09;100867.28;;;28.33;56.86
54556;BME280;57291;37.520;15.106;2022-08-24T11:03:11;100869.78;;;28.23;57.74
54556;BME280;57291;37.520;15.106;2022-08-24T11:05:48;100861.41;;;28.23;57.99
54556;BME280;57291;37.520;15.106;2022-08-24T11:08:22;100861.66;;;28.40;57.51
54556;BME280;57291;37.520;15.106;2022-08-24T11:11:12;100869.59;;;28.45;58.05
54556;BME280;57291;37.520;15.106;2022-08-24T11:13:55;100886.78;;;28.43;57.74
54556;BME280;57291;37.520;15.106;2022-08-24T11:16:32;100888.47;;;28.26;57.89
54556;BME280;57291;37.520;15.106;2022-08-24T11:19:05;100888.94;;;28.21;57.78
54556;BME280;57291;37.520;15.106;2022-08-24T11:21:37;100901.34;;;28.20;55.37
54556;BME280;57291;37.520;15.106;2022-08-24T11:24:12;100890.13;;;28.24;54.60
54556;BME280;57291;37.520;15.106;2022-08-24T11:27:02;100902.53;;;28.19;55.09
54556;BME280;57291;37.520;15.106;2022-08-24T11:35:03;100895.91;;;27.99;57.23
54556;BME280;57291;37.520;15.106;2022-08-24T11:37:37;100903.22;;;27.82;59.20
54556;BME280;57291;37.520;15.106;2022-08-24T11:40:07;100906.41;;;27.73;60.37
54556;BME280;57291;37.520;15.106;2022-08-24T11:45:44;100886.84;;;27.80;60.70
54556;BME280;57291;37.520;15.106;2022-08-24T11:54:36;100867.09;;;28.09;57.31
54556;BME280;57291;37.520;15.106;2022-08-24T11:57:09;100874.19;;;28.21;57.90
54556;BME280;57291;37.520;15.106;2022-08-24T12:00:05;100873.75;;;28.22;56.77
54556;BME280;57291;37.520;15.106;2022-08-24T12:06:09;100870.34;;;27.34;58.64
54556;BME280;57291;37.520;15.106;2022-08-24T12:09:00;100866.94;;;27.78;57.19
54556;BME280;57291;37.520;15.106;2022-08-24T12:19:54;100847.66;;;29.12;52.60
54556;BME280;57291;37.520;15.106;2022-08-24T12:22:26;100856.72;;;29.23;51.26
54556;BME280;57291;37.520;15.106;2022-08-24T12:24:58;100850.59;;;29.32;51.38
54556;BME280;57291;37.520;15.106;2022-08-24T12:27:37;100848.28;;;29.27;54.35
54556;BME280;57291;37.520;15.106;2022-08-24T12:30:10;100857.88;;;28.91;54.27
54556;BME280;57291;37.520;15.106;2022-08-24T12:35:25;100846.16;;;27.83;59.09
54556;BME280;57291;37.520;15.106;2022-08-24T12:37:58;100832.00;;;28.08;57.49
54556;BME280;57291;37.520;15.106;2022-08-24T12:45:55;100828.69;;;28.62;52.92
54556;BME280;57291;37.520;15.106;2022-08-24T12:51:09;100812.78;;;28.55;52.41
54556;BME280;57291;37.520;15.106;2022-08-24T13:01:46;100796.00;;;28.55;52.21
54556;BME280;57291;37.520;15.106;2022-08-24T13:23:21;100792.38;;;28.20;58.46
54556;BME280;57291;37.520;15.106;2022-08-24T13:26:17;100784.41;;;28.15;59.83
54556;BME280;57291;37.520;15.106;2022-08-24T13:28:46;100793.38;;;27.96;60.78
54556;BME280;57291;37.520;15.106;2022-08-24T13:31:32;100782.25;;;27.92;60.77
54556;BME280;57291;37.520;15.106;2022-08-24T13:34:38;100780.63;;;27.95;60.99
54556;BME280;57291;37.520;15.106;2022-08-24T13:37:26;100787.44;;;27.94;61.21
54556;BME280;57291;37.520;15.106;2022-08-24T13:51:41;100777.78;;;28.02;61.11
54556;BME280;57291;37.520;15.106;2022-08-24T13:54:36;100776.88;;;28.12;60.92
54556;BME280;57291;37.520;15.106;2022-08-24T14:00:13;100789.25;;;28.11;62.10
54556;BME280;57291;37.520;15.106;2022-08-24T14:07:58;100787.69;;;28.10;61.85
54556;BME280;57291;37.520;15.106;2022-08-24T14:16:44;100781.00;;;28.00;63.54
54556;BME280;57291;37.520;15.106;2022-08-24T14:19:49;100782.94;;;28.03;62.62
54556;BME280;57291;37.520;15.106;2022-08-24T14:22:55;100780.59;;;27.98;63.12
54556;BME280;57291;37.520;15.106;2022-08-24T14:25:29;100771.41;;;28.01;63.19
54556;BME280;57291;37.520;15.106;2022-08-24T14:40:34;100782.09;;;28.10;62.18
54556;BME280;57291;37.520;15.106;2022-08-24T14:48:42;100789.78;;;28.40;59.62
54556;BME280;57291;37.520;15.106;2022-08-24T14:54:13;100787.34;;;28.42;59.54
54556;BME280;57291;37.520;15.106;2022-08-24T14:56:56;100804.38;;;28.17;58.29
54556;BME280;57291;37.520;15.106;2022-08-24T14:59:32;100805.06;;;27.87;60.60
54556;BME280;57291;37.520;15.106;2022-08-24T15:07:58;100789.81;;;27.40;62.08
54556;BME280;57291;37.520;15.106;2022-08-24T15:11:10;100798.63;;;27.34;62.77
54556;BME280;57291;37.520;15.106;2022-08-24T15:16:12;100804.22;;;27.31;62.27
54556;BME280;57291;37.520;15.106;2022-08-24T15:18:46;100819.75;;;27.35;62.42
54556;BME280;57291;37.520;15.106;2022-08-24T15:21:25;100824.13;;;27.33;61.11
54556;BME280;57291;37.520;15.106;2022-08-24T15:27:05;100805.09;;;27.10;61.38
54556;BME280;57291;37.520;15.106;2022-08-24T15:29:35;100808.69;;;27.10;61.99
54556;BME280;57291;37.520;15.106;2022-08-24T15:32:12;100816.69;;;27.08;63.05
54556;BME280;57291;37.520;15.106;2022-08-24T15:34:52;100805.16;;;27.03;63.69
54556;BME280;57291;37.520;15.106;2022-08-24T15:37:29;100799.97;;;26.98;63.28
54556;BME280;57291;37.520;15.106;2022-08-24T15:39:58;100788.47;;;26.92;62.75
54556;BME280;57291;37.520;15.106;2022-08-24T15:42:27;100792.84;;;26.89;63.88
54556;BME280;57291;37.520;15.106;2022-08-24T15:44:59;100794.06;;;26.81;64.53
54556;BME280;57291;37.520;15.106;2022-08-24T15:47:32;100800.50;;;26.71;65.48
54556;BME280;57291;37.520;15.106;2022-08-24T15:50:04;100802.91;;;26.58;65.86
54556;BME280;57291;37.520;15.106;2022-08-24T15:55:41;100805.72;;;26.51;65.28
54556;BME280;57291;37.520;15.106;2022-08-24T15:58:14;100807.72;;;26.54;66.42
54556;BME280;57291;37.520;15.106;2022-08-24T16:00:45;100821.63;;;26.61;65.04
54556;BME280;57291;37.520;15.106;2022-08-24T16:09:02;100816.41;;;26.78;62.69
54556;BME280;57291;37.520;15.106;2022-08-24T16:11:38;100810.81;;;26.78;62.65
54556;BME280;57291;37.520;15.106;2022-08-24T16:14:13;100807.63;;;26.83;63.16
54556;BME280;57291;37.520;15.106;2022-08-24T16:16:49;100811.59;;;26.89;63.00
54556;BME280;57291;37.520;15.106;2022-08-24T16:19:23;100818.72;;;26.94;63.37
54556;BME280;57291;37.520;15.106;2022-08-24T16:21:56;100825.88;;;26.95;62.84
54556;BME280;57291;37.520;15.106;2022-08-24T16:24:31;100823.47;;;27.00;63.90
54556;BME280;57291;37.520;15.106;2022-08-24T16:27:01;100815.09;;;27.04;62.89
54556;BME280;57291;37.520;15.106;2022-08-24T16:37:27;100787.63;;;26.99;63.22
54556;BME280;57291;37.520;15.106;2022-08-24T16:39:55;100782.09;;;26.95;63.09
54556;BME280;57291;37.520;15.106;2022-08-24T16:42:27;100781.69;;;26.93;62.76
54556;BME280;57291;37.520;15.106;2022-08-24T16:44:56;100789.28;;;26.89;63.65
54556;BME280;57291;37.520;15.106;2022-08-24T16:47:25;100793.28;;;26.84;63.74
54556;BME280;57291;37.520;15.106;2022-08-24T16:49:53;100793.31;;;26.77;64.38
54556;BME280;57291;37.520;15.106;2022-08-24T16:52:21;100798.09;;;26.73;65.17
54556;BME280;57291;37.520;15.106;2022-08-24T16:54:49;100801.72;;;26.66;64.91
54556;BME280;57291;37.520;15.106;2022-08-24T16:57:20;100812.88;;;26.63;65.46
54556;BME280;57291;37.520;15.106;2022-08-24T16:59:50;100814.47;;;26.60;65.41
54556;BME280;57291;37.520;15.106;2022-08-24T17:02:19;100813.25;;;26.61;65.87
54556;BME280;57291;37.520;15.106;2022-08-24T17:04:48;100822.03;;;26.60;65.29
54556;BME280;57291;37.520;15.106;2022-08-24T17:07:21;100824.03;;;26.59;64.35
54556;BME280;57291;37.520;15.106;2022-08-24T17:09:51;100820.06;;;26.57;64.52
54556;BME280;57291;37.520;15.106;2022-08-24T17:12:19;100828.41;;;26.57;64.91
54556;BME280;57291;37.520;15.106;2022-08-24T17:14:47;100833.63;;;26.48;64.59